Terminal Aerodrome Forecast
Issued by NWS Sterling, VA

Home | Current Version | Previous Version | Text Only | Print | Product List | Glossary On
Versions: 1 2 3 4 5 6 7 8 9 10 11 12 13 14 15 16 17 18 19 20 21 22
000
FTUS41 KLWX 250600 AAA
TAFCHO
TAF AMD
KCHO 250647Z 2507/2606 00000KT 1SM BR SCT002 BKN070
      TEMPO 2507/2511 1/2SM FG BKN001
     FM251300 VRB03KT 4SM BR SCT080
     FM251400 03004KT P6SM SCT030
     FM251600 08004KT P6SM SCT200
     FM252100 20005KT P6SM SCT250=

USA.gov is the U.S. government's official web portal to all federal, state and local government web resources and services.